DIRECCIÓN GENERAL DE AERONÁUTICA CIVIL
DIRECCIÓN METEOROLÓGICA DE CHILE
INFORMACIÓN METAR Y TAF

FIR SANTIAGO

Estación: SCSE
METAR SCSE 300400Z 26004KT 9999 OVC030 13/09 Q1020=

TAF SCSE 292224Z 3000/3024 29008KT 9999 BKN015 TX15/3018Z TN09/3010Z BECMG 3001/3003 12005KT TEMPO 3006/3012 32006KT BKN010 BECMG 3014/ 3016 29010KT SCT020 BECMG 3018/3020 CAVOK=

Estación: SCER
METAR SCER 161100Z 00000KT 7000 OVC014 12/10 Q1015=

TAF SCER NIL=

Estación: SCRD
METAR SCRD 292200Z 33015KT 9999 VCFG BKN006 SCT230 10/09 Q1014=

TAF SCRD 291110Z 2912/2924 VRB02KT CAVOK TX15/2918Z TN10/2912Z TEMPO 2912/2913 01005KT 5000 BR BECMG 2915/2917 33015KT=

Estación: SCVM
METAR SCVM 300400Z 01010KT 9999 SCT018 BKN200 12/10 Q1018=

TAF SCVM 292225Z 3000/3024 30010KT 9999 SCT020 BKN200 TX14/3019Z TN09 /3010Z BECMG 3004/3006 35007KT BKN025 BKN150 BECMG 3007/3009 35012KT 5000 RA BKN020 BKN040 BECMG 3012/3014 7000 -SHRA SCT015 BKN030 BECMG 3016/3018 33010KT 9999 SCT030 BECMG 3020/3022 CAVOK=

Estación: SCTB
METAR SCTB 292200Z 14002KT 9999 BKN180 19/04 Q1013=

TAF SCTB 291110Z 2912/2924 22005KT 5000 HZ BKN180 TX15/2918Z TN08/ 2912Z TEMPO 2913/2916 9999 BKN150 BECMG 2916/2918 SCT050 BKN130 BECMG 2917/2919 28005KT 6000=

Estación: SCEL
METAR SCEL 300400Z 15009KT 9999 SCT030 SCT180 09/05 Q1016 NOSIG=

TAF SCEL 292225Z 3000/3024 18008KT 9999 SCT180 TX15/3018Z TN07/3010Z BECMG 3001/3003 15005KT 8000 BKN180 TEMPO 3007/3009 06010KT 6000 - SHRA BKN040 BKN120 BECMG 3010/3012 06010KT 6000 -SHRA BKN030 BKN060 BECMG 3017/3019 19010KT 9999 SCT040 BECMG 3020/3022 CAVOK=

Estación: SCSN
METAR SCSN 30000Z 34006KT 9999 FEW012 BKN200 11/09 Q1015=

TAF SCSN 291110Z 2912/2924 VRB02KT CAVOK TX15/2918Z TN10/2912Z TEMPO 2912/2915 35005KT BECMG 2915/2917 33015KT=

Estación: SCRG
METAR SCRG 292100Z 13004KT 7000 NSC 15/11 Q1010=

TAF SCRG 291103Z 2912/2924 VRB02KT 5000 HZ NSC TX15/2918Z TN08/2912Z TEMPO 2912/2915 3500 HZ SCT010 BECMG 2915/2917 30008KT CAVOK=

Estación: SCIC
METAR SCIC 300400Z AUTO 36010KT 9999 NCD 11/07 Q1015=

TAF SCIC 291104Z 2912/2924 VRB02KT CAVOK TX15/2919Z TN06/2912Z TEMPO 2912/2915 02007KT 5000 BR BECMG 2917/2919 03007KT=

Estación: SCCH
METAR SCCH 292200Z 01011KT 8000 BKN100 15/07 Q1011=

TAF SCCH 291104Z 2912/2924 01010KT 8000 SCT050 BKN100 TX13/2918Z TN07/2912Z BECMG 2915/2917 6000 -SHRA BKN040 BKN080 TEMPO 2918/2922 03015KT 5000 SHRA BKN010 OVC020=

Estación: SCIE
METAR SCIE 300400Z 05013KT 9999 OVC023 13/08 Q1010=

TAF SCIE 292226Z 3000/3024 05010KT 9999 BKN030 BKN080 TX14/3018Z TN10 /3010Z TEMPO 3000/3002 02018KT 8000 -SHRA BKN025 BKN050 BECMG 3003/ 3005 03018G28KT 5000 RA BKN015 BKN030 BECMG 3013/3015 01012KT 9999 SCT030 BECMG 3015/3017 35010KT CAVOK=

Estación: SCGE
METAR SCGE 292100Z 00000KT 9999 FEW040 BKN100 14/08 Q1013=

TAF SCGE 291105Z 2912/2924 03010KT 6000 BKN050 BKN090 TX12/2918Z TN08/2912Z BECMG 2915/2917 03020KT 6000 -SHRA BKN025 OVC030 TEMPO 2918/2922 03020G30KT 4000 SHRA BKN015 OVC020=


Volver